createdAt,value
2022-08-05T00:02:22.766Z,99.90
2022-08-05T00:04:55.158Z,99.90
2022-08-05T00:07:59.080Z,99.90
2022-08-05T00:10:11.964Z,99.90
2022-08-05T00:12:55.747Z,99.90
2022-08-05T00:15:56.136Z,99.90
2022-08-05T00:18:21.327Z,99.90
2022-08-05T00:20:49.929Z,99.90
2022-08-05T00:23:17.297Z,99.90
2022-08-05T00:26:05.025Z,99.90
2022-08-05T00:28:32.939Z,99.90
2022-08-05T00:31:04.126Z,99.90
2022-08-05T00:34:53.219Z,99.90
2022-08-05T00:37:11.630Z,99.90
2022-08-05T00:39:14.029Z,99.90
2022-08-05T00:41:55.260Z,99.90
2022-08-05T00:44:30.314Z,99.90
2022-08-05T00:47:04.271Z,99.90
2022-08-05T00:49:44.603Z,99.90
2022-08-05T00:52:28.401Z,99.90
2022-08-05T00:54:56.295Z,99.90
2022-08-05T00:57:25.459Z,99.90
2022-08-05T00:59:59.542Z,99.90
2022-08-05T01:02:28.493Z,99.90
2022-08-05T01:04:55.636Z,99.90
2022-08-05T01:07:31.632Z,99.90
2022-08-05T01:09:59.785Z,99.90
2022-08-05T01:12:29.841Z,99.90
2022-08-05T01:15:05.475Z,99.90
2022-08-05T01:17:39.919Z,99.90
2022-08-05T01:20:29.547Z,99.90
2022-08-05T01:23:15.323Z,99.90
2022-08-05T01:25:56.286Z,99.90
2022-08-05T01:28:51.441Z,99.90
2022-08-05T01:31:24.791Z,99.90
2022-08-05T01:34:04.919Z,99.90
2022-08-05T01:36:47.304Z,99.90
2022-08-05T01:39:36.079Z,99.90
2022-08-05T01:42:06.556Z,99.90
2022-08-05T01:44:39.377Z,99.90
2022-08-05T01:47:09.610Z,99.90
2022-08-05T01:50:00.126Z,99.90
2022-08-05T01:52:37.542Z,99.90
2022-08-05T01:55:09.637Z,99.90
2022-08-05T01:58:10.722Z,99.90
2022-08-05T02:00:31.837Z,99.90
2022-08-05T02:03:05.484Z,99.90
2022-08-05T02:05:36.732Z,99.90
2022-08-05T02:08:04.905Z,99.90
2022-08-05T02:10:41.032Z,99.90
2022-08-05T02:13:22.043Z,99.90
2022-08-05T02:15:59.279Z,99.90
2022-08-05T02:18:35.187Z,99.90
2022-08-05T02:21:14.845Z,99.90
2022-08-05T02:23:46.032Z,99.90
2022-08-05T02:26:18.635Z,99.90
2022-08-05T02:28:50.434Z,99.90
2022-08-05T02:31:24.535Z,99.90
2022-08-05T02:34:01.310Z,99.90
2022-08-05T02:36:31.669Z,99.90
2022-08-05T02:39:01.888Z,99.90
2022-08-05T02:41:43.206Z,99.90
2022-08-05T02:44:23.826Z,99.90
2022-08-05T02:46:59.889Z,99.90
2022-08-05T02:49:37.675Z,99.90
2022-08-05T02:52:29.967Z,99.90
2022-08-05T02:55:01.801Z,99.90
2022-08-05T02:58:11.881Z,99.90
2022-08-05T03:00:20.929Z,99.90
2022-08-05T03:02:53.838Z,99.90
2022-08-05T03:05:21.924Z,99.90
2022-08-05T03:08:11.433Z,99.90
2022-08-05T03:10:39.105Z,99.90
2022-08-05T03:13:18.349Z,99.90
2022-08-05T03:15:47.484Z,99.90
2022-08-05T03:18:17.466Z,99.90
2022-08-05T03:20:48.934Z,99.90
2022-08-05T03:23:18.060Z,99.90
2022-08-05T03:26:30.027Z,99.90
2022-08-05T03:28:35.166Z,99.90
2022-08-05T03:31:04.207Z,99.90
2022-08-05T03:33:42.346Z,99.90
2022-08-05T03:36:30.183Z,99.90
2022-08-05T03:38:59.341Z,99.90
2022-08-05T03:41:32.928Z,99.90
2022-08-05T03:44:11.637Z,99.90
2022-08-05T03:46:39.896Z,99.90
2022-08-05T03:49:07.075Z,99.90
2022-08-05T03:52:37.090Z,99.90
2022-08-05T03:56:05.655Z,99.90
2022-08-05T03:57:53.755Z,99.90
2022-08-05T04:00:26.715Z,99.90
2022-08-05T04:02:58.535Z,99.90
2022-08-05T04:05:35.796Z,99.90
2022-08-05T04:08:14.485Z,99.90
2022-08-05T04:10:53.983Z,99.90
2022-08-05T04:13:22.508Z,99.90
2022-08-05T04:16:02.710Z,99.90
2022-08-05T04:18:34.719Z,99.90
2022-08-05T04:21:04.011Z,99.90
2022-08-05T04:24:05.015Z,99.90
2022-08-05T04:26:20.298Z,99.90
2022-08-05T04:28:51.064Z,99.90
2022-08-05T04:31:20.145Z,99.90
2022-08-05T04:34:17.011Z,99.90
2022-08-05T04:36:45.648Z,99.90
2022-08-05T04:39:13.824Z,99.90
2022-08-05T04:41:44.374Z,99.90
2022-08-05T04:44:14.361Z,99.90
2022-08-05T04:46:43.543Z,99.90
2022-08-05T04:49:19.176Z,99.90
2022-08-05T04:52:00.390Z,99.90
2022-08-05T04:54:30.776Z,99.90
2022-08-05T04:57:01.672Z,99.90
2022-08-05T04:59:40.468Z,99.90
2022-08-05T05:02:41.217Z,99.90
2022-08-05T05:05:01.636Z,99.90
2022-08-05T05:07:31.926Z,99.90
2022-08-05T05:10:02.161Z,99.90
2022-08-05T05:12:30.487Z,99.90
2022-08-05T05:14:57.583Z,99.90
2022-08-05T05:17:55.761Z,99.90
2022-08-05T05:20:13.735Z,99.90
2022-08-05T05:22:44.140Z,99.90
2022-08-05T05:25:16.444Z,99.90
2022-08-05T05:27:53.801Z,99.90
2022-08-05T05:30:30.866Z,99.90
2022-08-05T05:33:15.827Z,99.90
2022-08-05T05:35:45.716Z,99.90
2022-08-05T05:38:14.154Z,99.90
2022-08-05T05:40:50.078Z,99.90
2022-08-05T05:43:22.209Z,99.90
2022-08-05T05:46:15.748Z,99.90
2022-08-05T05:48:47.879Z,99.90
2022-08-05T05:51:25.753Z,99.90
2022-08-05T05:53:58.564Z,99.90
2022-08-05T05:56:33.004Z,99.90
2022-08-05T05:59:05.113Z,99.90
2022-08-05T06:01:39.428Z,99.90
2022-08-05T06:04:11.391Z,99.90
2022-08-05T06:06:47.798Z,97.30
2022-08-05T06:09:24.906Z,92.60
2022-08-05T06:11:59.903Z,88.20
2022-08-05T06:14:31.810Z,82.00
2022-08-05T06:17:22.227Z,78.60
2022-08-05T06:19:57.040Z,76.80
2022-08-05T06:22:33.449Z,71.50
2022-08-05T06:25:24.465Z,72.30
2022-08-05T06:28:12.442Z,71.10
2022-08-05T06:30:36.796Z,69.70
2022-08-05T06:33:04.354Z,69.40
2022-08-05T06:36:07.228Z,67.90
2022-08-05T06:38:36.578Z,65.90
2022-08-05T06:41:08.198Z,64.10
2022-08-05T06:43:58.246Z,62.10
2022-08-05T06:46:30.246Z,61.80
2022-08-05T06:49:00.791Z,62.30
2022-08-05T06:51:30.750Z,64.00
2022-08-05T06:54:03.693Z,64.70
2022-08-05T06:56:34.970Z,65.00
2022-08-05T06:59:04.760Z,63.70
2022-08-05T07:01:38.685Z,63.30
2022-08-05T07:04:08.886Z,62.60
2022-08-05T07:06:36.097Z,60.40
2022-08-05T07:09:06.314Z,59.60
2022-08-05T07:11:37.173Z,58.20
2022-08-05T07:14:38.807Z,57.40
2022-08-05T07:18:02.422Z,55.50
2022-08-05T07:20:30.978Z,57.30
2022-08-05T07:22:42.629Z,54.20
2022-08-05T07:25:53.866Z,54.10
2022-08-05T07:28:03.911Z,54.40
2022-08-05T07:30:39.049Z,55.10
2022-08-05T07:33:10.627Z,56.00
2022-08-05T07:36:01.815Z,54.40
2022-08-05T07:38:34.973Z,53.20
2022-08-05T07:41:34.958Z,53.90
2022-08-05T07:44:06.583Z,51.70
2022-08-05T07:46:42.107Z,53.10
2022-08-05T07:49:16.195Z,51.40
2022-08-05T07:51:53.909Z,50.30
2022-08-05T07:54:30.629Z,51.00
2022-08-05T07:57:01.626Z,50.70
2022-08-05T07:59:42.450Z,49.80
2022-08-05T08:02:15.742Z,49.20
2022-08-05T08:04:48.259Z,48.60
2022-08-05T08:07:17.933Z,49.90
2022-08-05T08:09:46.829Z,49.70
2022-08-05T08:12:35.236Z,49.70
2022-08-05T08:15:13.933Z,49.30
2022-08-05T08:17:46.202Z,48.20
2022-08-05T08:21:00.009Z,48.20
2022-08-05T08:23:59.672Z,46.50
2022-08-05T08:26:00.068Z,48.80
2022-08-05T08:28:36.509Z,47.60
2022-08-05T08:31:07.048Z,48.80
2022-08-05T08:33:38.589Z,49.40
2022-08-05T08:38:57.266Z,48.10
2022-08-05T08:41:50.609Z,48.50
2022-08-05T08:45:16.543Z,48.40
2022-08-05T08:47:46.834Z,49.30
2022-08-05T08:50:12.900Z,49.80
2022-08-05T08:52:52.859Z,51.70
2022-08-05T08:56:02.913Z,51.90
2022-08-05T08:58:12.737Z,54.30
2022-08-05T09:00:42.670Z,55.70
2022-08-05T09:03:11.848Z,56.10
2022-08-05T09:06:08.663Z,56.90
2022-08-05T09:08:31.153Z,57.10
2022-08-05T09:10:58.745Z,57.90
2022-08-05T09:13:31.688Z,60.30
2022-08-05T09:16:14.548Z,59.60
2022-08-05T09:18:44.568Z,61.60
2022-08-05T09:21:20.744Z,62.60
2022-08-05T09:24:10.258Z,62.90
2022-08-05T09:26:38.050Z,64.10
2022-08-05T09:29:17.524Z,61.70
2022-08-05T09:32:40.193Z,62.00
2022-08-05T09:34:56.390Z,59.70
2022-08-05T09:38:12.917Z,62.20
2022-08-05T09:40:30.126Z,60.70
2022-08-05T09:43:01.268Z,60.20
2022-08-05T09:46:06.647Z,60.70
2022-08-05T09:48:30.499Z,60.90
2022-08-05T09:51:00.683Z,60.30
2022-08-05T09:53:53.183Z,59.30
2022-08-05T09:56:30.031Z,59.40
2022-08-05T09:59:00.699Z,59.70
2022-08-05T10:01:34.198Z,61.30
2022-08-05T10:04:10.600Z,61.20
2022-08-05T10:06:54.633Z,59.40
2022-08-05T10:09:27.266Z,58.80
2022-08-05T10:12:30.037Z,59.50
2022-08-05T10:15:17.335Z,62.60
2022-08-05T10:18:11.845Z,58.80
2022-08-05T10:20:44.314Z,61.20
2022-08-05T10:23:22.112Z,59.10
2022-08-05T10:26:14.552Z,59.70
2022-08-05T10:28:44.890Z,57.40
2022-08-05T10:32:48.937Z,58.20
2022-08-05T10:34:06.995Z,57.80
2022-08-05T10:36:37.983Z,60.40
2022-08-05T10:39:11.872Z,59.60
2022-08-05T10:42:04.680Z,58.80
2022-08-05T10:44:33.351Z,57.50
2022-08-05T10:47:26.596Z,59.20
2022-08-05T10:50:32.299Z,58.50
2022-08-05T10:52:58.774Z,56.50
2022-08-05T10:55:27.422Z,59.60
2022-08-05T10:58:11.884Z,59.10
2022-08-05T11:00:48.419Z,56.60
2022-08-05T11:03:26.343Z,56.80
2022-08-05T11:06:15.513Z,57.70
2022-08-05T11:09:31.941Z,58.40
2022-08-05T11:12:26.732Z,58.60
2022-08-05T11:15:21.459Z,58.30
2022-08-05T11:17:57.343Z,56.70
2022-08-05T11:20:43.978Z,58.90
2022-08-05T11:23:33.568Z,58.90
2022-08-05T11:26:28.646Z,58.30
2022-08-05T11:28:57.059Z,57.00
2022-08-05T11:31:54.312Z,56.40
2022-08-05T11:34:37.085Z,57.00
2022-08-05T11:37:06.109Z,54.80
2022-08-05T11:40:00.836Z,55.10
2022-08-05T11:42:37.977Z,57.30
2022-08-05T11:45:14.328Z,57.70
2022-08-05T11:47:51.103Z,56.90
2022-08-05T11:50:22.896Z,55.10
2022-08-05T11:52:53.146Z,56.40
2022-08-05T11:55:32.082Z,53.70
2022-08-05T11:58:11.053Z,54.00
2022-08-05T12:00:41.662Z,55.50
2022-08-05T12:03:29.556Z,56.60
2022-08-05T12:06:02.194Z,56.30
2022-08-05T12:08:31.448Z,56.30
2022-08-05T12:11:05.913Z,56.10
2022-08-05T12:13:48.478Z,54.70
2022-08-05T12:16:20.062Z,56.90
2022-08-05T12:18:53.664Z,55.70
2022-08-05T12:21:26.577Z,56.80
2022-08-05T12:24:00.212Z,55.60
2022-08-05T12:26:36.166Z,54.90
2022-08-05T12:29:09.331Z,55.10
2022-08-05T12:31:43.521Z,55.80
2022-08-05T12:34:20.279Z,56.60
2022-08-05T12:36:50.379Z,55.80
2022-08-05T12:39:18.217Z,54.80
2022-08-05T12:41:45.906Z,54.70
2022-08-05T12:44:21.767Z,53.20
2022-08-05T12:47:02.202Z,56.30
2022-08-05T12:50:05.146Z,55.90
2022-08-05T12:52:39.444Z,58.00
2022-08-05T12:55:22.458Z,57.20
2022-08-05T12:58:51.430Z,55.20
2022-08-05T13:02:03.099Z,56.60
2022-08-05T13:03:32.332Z,54.70
2022-08-05T13:06:01.529Z,55.50
2022-08-05T13:08:32.314Z,55.50
2022-08-05T13:11:02.245Z,57.00
2022-08-05T13:14:04.637Z,54.80
2022-08-05T13:16:19.605Z,55.00
2022-08-05T13:18:58.351Z,55.00
2022-08-05T13:21:27.882Z,55.00
2022-08-05T13:23:56.537Z,57.00
2022-08-05T13:26:30.055Z,54.20
2022-08-05T13:28:59.196Z,56.80
2022-08-05T13:32:03.320Z,56.50
2022-08-05T13:34:21.751Z,57.80
2022-08-05T13:36:54.067Z,55.70
2022-08-05T13:40:13.918Z,58.10
2022-08-05T13:42:14.670Z,57.10
2022-08-05T13:44:45.799Z,57.20
2022-08-05T13:47:35.920Z,55.90
2022-08-05T13:50:04.106Z,55.60
2022-08-05T13:52:35.224Z,55.50
2022-08-05T13:55:07.633Z,56.30
2022-08-05T13:57:51.288Z,57.40
2022-08-05T14:00:27.042Z,55.70
2022-08-05T14:02:57.311Z,56.60
2022-08-05T14:05:48.407Z,58.50
2022-08-05T14:08:21.017Z,56.40
2022-08-05T14:10:59.728Z,57.60
2022-08-05T14:13:36.017Z,56.50
2022-08-05T14:16:07.194Z,55.70
2022-08-05T14:18:38.001Z,56.20
2022-08-05T14:22:07.011Z,57.40
2022-08-05T14:23:53.872Z,55.80
2022-08-05T14:26:36.828Z,57.50
2022-08-05T14:29:15.757Z,56.90
2022-08-05T14:32:02.672Z,55.80
2022-08-05T14:34:35.433Z,57.50
2022-08-05T14:37:05.215Z,57.00
2022-08-05T14:39:49.430Z,56.00
2022-08-05T14:42:21.409Z,56.90
2022-08-05T14:44:50.228Z,56.20
2022-08-05T14:47:58.333Z,56.20
2022-08-05T14:50:17.767Z,57.10
2022-08-05T14:52:57.594Z,56.60
2022-08-05T14:55:28.744Z,58.10
2022-08-05T14:58:10.956Z,58.30
2022-08-05T15:00:58.858Z,59.40
2022-08-05T15:03:33.364Z,58.30
2022-08-05T15:06:15.447Z,57.60
2022-08-05T15:09:01.226Z,55.90
2022-08-05T15:11:52.990Z,56.30
2022-08-05T15:14:34.426Z,56.40
2022-08-05T15:17:44.272Z,55.70
2022-08-05T15:19:53.014Z,55.70
2022-08-05T15:22:22.573Z,56.50
2022-08-05T15:24:55.797Z,58.50
2022-08-05T15:27:25.749Z,57.80
2022-08-05T15:29:56.780Z,58.60
2022-08-05T15:32:27.502Z,56.40
2022-08-05T15:34:57.403Z,58.20
2022-08-05T15:38:34.763Z,58.50
2022-08-05T15:40:58.699Z,56.20
2022-08-05T15:43:10.890Z,57.10
2022-08-05T15:45:45.714Z,58.70
2022-08-05T15:48:15.255Z,57.50
2022-08-05T15:50:43.936Z,59.30
2022-08-05T15:53:14.424Z,58.60
2022-08-05T15:56:04.021Z,57.80
2022-08-05T15:58:35.790Z,60.40
2022-08-05T16:01:16.086Z,60.70
2022-08-05T16:03:51.046Z,59.80
2022-08-05T16:06:20.635Z,59.60
2022-08-05T16:08:53.609Z,61.80
2022-08-05T16:11:39.974Z,61.00
2022-08-05T16:14:09.006Z,59.00
2022-08-05T16:16:37.298Z,59.70
2022-08-05T16:19:05.086Z,61.10
2022-08-05T16:22:00.111Z,60.30
2022-08-05T16:24:39.777Z,62.40
2022-08-05T16:27:07.831Z,67.80
2022-08-05T16:29:37.609Z,68.00
2022-08-05T16:32:09.802Z,68.70
2022-08-05T16:34:39.269Z,69.20
2022-08-05T16:38:00.333Z,71.50
2022-08-05T16:40:04.944Z,72.70
2022-08-05T16:42:35.219Z,73.30
2022-08-05T16:45:05.977Z,74.90
2022-08-05T16:47:55.607Z,76.00
2022-08-05T16:50:26.105Z,75.80
2022-08-05T16:52:53.146Z,76.70
2022-08-05T16:55:24.668Z,77.70
2022-08-05T16:58:01.271Z,78.10
2022-08-05T17:00:35.043Z,79.10
2022-08-05T17:03:15.280Z,81.00
2022-08-05T17:05:53.960Z,81.80
2022-08-05T17:08:36.162Z,82.70
2022-08-05T17:11:16.860Z,84.10
2022-08-05T17:13:45.695Z,83.90
2022-08-05T17:16:30.309Z,84.70
2022-08-05T17:19:01.411Z,85.70
2022-08-05T17:21:35.976Z,86.70
2022-08-05T17:24:18.481Z,87.20
2022-08-05T17:26:56.141Z,88.30
2022-08-05T17:29:33.854Z,88.90
2022-08-05T17:32:11.681Z,89.00
2022-08-05T17:34:47.699Z,89.30
2022-08-05T17:37:39.648Z,89.50
2022-08-05T17:40:10.151Z,90.30
2022-08-05T17:42:42.912Z,91.20
2022-08-05T17:45:20.270Z,91.90
2022-08-05T17:47:55.059Z,92.30
2022-08-05T17:50:28.149Z,93.00
2022-08-05T17:53:02.153Z,93.30
2022-08-05T17:55:37.217Z,93.90
2022-08-05T17:58:12.778Z,94.50
2022-08-05T18:00:47.699Z,94.80
2022-08-05T18:06:11.180Z,94.90
2022-08-05T18:08:44.919Z,94.90
2022-08-05T18:11:23.188Z,94.10
2022-08-05T18:13:51.883Z,93.90
2022-08-05T18:16:20.387Z,93.70
2022-08-05T18:18:49.888Z,95.20
2022-08-05T18:21:23.031Z,95.40
2022-08-05T18:23:54.466Z,95.00
2022-08-05T18:26:27.739Z,96.30
2022-08-05T18:28:57.423Z,97.60
2022-08-05T18:31:25.168Z,98.50
2022-08-05T18:33:54.137Z,99.30
2022-08-05T18:36:27.924Z,99.80
2022-08-05T18:38:56.130Z,99.90
2022-08-05T18:41:58.475Z,99.90
2022-08-05T18:44:12.756Z,99.90
2022-08-05T18:46:41.049Z,99.90
2022-08-05T18:49:44.521Z,99.90
2022-08-05T18:52:35.851Z,99.90
2022-08-05T18:55:10.693Z,99.90
2022-08-05T18:57:50.178Z,99.90
2022-08-05T19:00:29.193Z,99.90
2022-08-05T19:03:03.275Z,99.90
2022-08-05T19:06:13.288Z,99.90
2022-08-05T19:08:19.815Z,99.90
2022-08-05T19:10:50.054Z,99.90
2022-08-05T19:13:17.916Z,99.90
2022-08-05T19:15:58.765Z,99.90
2022-08-05T19:18:28.997Z,99.90
2022-08-05T19:20:56.951Z,99.90
2022-08-05T19:24:05.997Z,99.90
2022-08-05T19:26:12.773Z,99.90
2022-08-05T19:28:42.418Z,99.90
2022-08-05T19:31:13.205Z,99.90
2022-08-05T19:33:48.656Z,99.90
2022-08-05T19:36:26.722Z,99.90
2022-08-05T19:39:00.565Z,99.90
2022-08-05T19:41:58.057Z,99.90
2022-08-05T19:44:15.383Z,99.90
2022-08-05T19:46:43.675Z,99.90
2022-08-05T19:49:14.438Z,99.90
2022-08-05T19:52:08.505Z,99.90
2022-08-05T19:54:33.022Z,99.90
2022-08-05T19:57:08.321Z,99.90
2022-08-05T20:00:01.047Z,99.90
2022-08-05T20:02:31.490Z,99.90
2022-08-05T20:04:59.892Z,99.90
2022-08-05T20:07:47.182Z,99.90
2022-08-05T20:10:17.505Z,99.90
2022-08-05T20:12:49.178Z,99.90
2022-08-05T20:15:48.620Z,99.90
2022-08-05T20:18:10.075Z,99.90
2022-08-05T20:20:55.991Z,99.90
2022-08-05T20:23:40.480Z,99.90
2022-08-05T20:26:15.237Z,99.90
2022-08-05T20:28:44.484Z,99.90
2022-08-05T20:31:12.136Z,99.90
2022-08-05T20:33:42.339Z,99.90
2022-08-05T20:36:11.218Z,99.90
2022-08-05T20:38:40.676Z,99.90
2022-08-05T20:41:08.503Z,99.90
2022-08-05T20:43:59.803Z,99.90
2022-08-05T20:46:24.917Z,99.90
2022-08-05T20:48:53.044Z,99.90
2022-08-05T20:51:22.263Z,99.90
2022-08-05T20:53:56.564Z,99.90
2022-08-05T20:56:28.208Z,99.90
2022-08-05T20:59:00.104Z,99.90
2022-08-05T21:01:41.754Z,99.90
2022-08-05T21:04:10.871Z,99.90
2022-08-05T21:06:45.538Z,99.90
2022-08-05T21:09:15.062Z,99.90
2022-08-05T21:12:07.354Z,99.90
2022-08-05T21:14:34.896Z,99.90
2022-08-05T21:17:05.633Z,99.90
2022-08-05T21:19:47.375Z,99.90
2022-08-05T21:22:18.297Z,99.90
2022-08-05T21:24:51.926Z,99.90
2022-08-05T21:27:24.992Z,99.90
2022-08-05T21:29:56.573Z,99.90
2022-08-05T21:32:27.689Z,99.90
2022-08-05T21:35:08.250Z,99.90
2022-08-05T21:37:52.650Z,99.90
2022-08-05T21:40:23.185Z,99.90
2022-08-05T21:42:52.600Z,99.90
2022-08-05T21:45:38.089Z,99.90
2022-08-05T21:48:10.559Z,99.90
2022-08-05T21:50:54.035Z,99.90
2022-08-05T21:53:27.694Z,99.90
2022-08-05T21:56:09.516Z,99.90
2022-08-05T21:58:56.964Z,99.90
2022-08-05T22:01:26.097Z,99.90
2022-08-05T22:03:54.071Z,99.90
2022-08-05T22:06:35.341Z,99.90
2022-08-05T22:09:13.627Z,99.90
2022-08-05T22:11:46.959Z,99.90
2022-08-05T22:14:32.931Z,99.90
2022-08-05T22:17:05.016Z,99.90
2022-08-05T22:20:00.423Z,99.90
2022-08-05T22:22:27.049Z,99.90
2022-08-05T22:25:21.276Z,99.90
2022-08-05T22:28:04.957Z,99.90
2022-08-05T22:30:55.458Z,99.90
2022-08-05T22:33:56.860Z,99.90
2022-08-05T22:36:14.455Z,99.90
2022-08-05T22:38:47.958Z,99.90
2022-08-05T22:42:05.401Z,99.90
2022-08-05T22:44:08.322Z,99.90
2022-08-05T22:46:39.799Z,99.90
2022-08-05T22:49:12.058Z,99.90
2022-08-05T22:52:05.558Z,99.90
2022-08-05T22:54:36.671Z,99.90
2022-08-05T22:57:06.113Z,99.90
2022-08-05T22:59:46.370Z,99.90
2022-08-05T23:02:18.684Z,99.90
2022-08-05T23:05:01.420Z,99.90
2022-08-05T23:07:32.579Z,99.90
2022-08-05T23:10:11.099Z,99.90
2022-08-05T23:12:38.629Z,99.90
2022-08-05T23:15:08.740Z,99.90
2022-08-05T23:18:00.944Z,99.90
2022-08-05T23:20:25.186Z,99.90
2022-08-05T23:22:55.701Z,99.90
2022-08-05T23:25:51.408Z,99.90
2022-08-05T23:28:12.189Z,99.90
2022-08-05T23:30:43.768Z,99.90
2022-08-05T23:33:25.641Z,99.90
2022-08-05T23:35:56.236Z,99.90
2022-08-05T23:38:26.858Z,99.90
2022-08-05T23:40:54.346Z,99.90
2022-08-05T23:43:25.300Z,99.90
2022-08-05T23:46:19.590Z,99.90
2022-08-05T23:49:00.999Z,99.90
2022-08-05T23:51:54.354Z,99.90
2022-08-05T23:54:26.049Z,99.90
2022-08-05T23:56:55.939Z,99.90
